sensor_id;sensor_type;location;lat;lon;timestamp;P1;durP1;ratioP1;P2;durP2;ratioP2
1955;SDS011;978;48.314;11.562;2023-07-13T00:01:44;16.23;;;5.87;;
1955;SDS011;978;48.314;11.562;2023-07-13T00:04:14;17.00;;;6.47;;
1955;SDS011;978;48.314;11.562;2023-07-13T00:06:43;16.80;;;8.00;;
1955;SDS011;978;48.314;11.562;2023-07-13T00:09:10;16.57;;;6.17;;
1955;SDS011;978;48.314;11.562;2023-07-13T00:11:38;17.10;;;5.90;;
1955;SDS011;978;48.314;11.562;2023-07-13T00:14:05;16.27;;;6.80;;
1955;SDS011;978;48.314;11.562;2023-07-13T00:16:33;17.10;;;6.80;;
1955;SDS011;978;48.314;11.562;2023-07-13T00:19:00;15.60;;;6.53;;
1955;SDS011;978;48.314;11.562;2023-07-13T00:21:27;16.30;;;5.37;;
1955;SDS011;978;48.314;11.562;2023-07-13T00:23:55;17.30;;;7.47;;
1955;SDS011;978;48.314;11.562;2023-07-13T00:26:22;16.77;;;6.50;;
1955;SDS011;978;48.314;11.562;2023-07-13T00:28:49;16.77;;;7.47;;
1955;SDS011;978;48.314;11.562;2023-07-13T00:31:16;16.80;;;5.57;;
1955;SDS011;978;48.314;11.562;2023-07-13T00:33:43;16.57;;;6.23;;
1955;SDS011;978;48.314;11.562;2023-07-13T00:36:10;16.50;;;7.20;;
1955;SDS011;978;48.314;11.562;2023-07-13T00:38:37;16.80;;;7.23;;
1955;SDS011;978;48.314;11.562;2023-07-13T00:41:05;16.00;;;5.23;;
1955;SDS011;978;48.314;11.562;2023-07-13T00:43:32;16.03;;;6.40;;
1955;SDS011;978;48.314;11.562;2023-07-13T00:48:49;18.30;;;7.47;;
1955;SDS011;978;48.314;11.562;2023-07-13T00:51:19;16.43;;;7.87;;
1955;SDS011;978;48.314;11.562;2023-07-13T00:53:49;15.83;;;5.63;;
1955;SDS011;978;48.314;11.562;2023-07-13T00:56:20;16.77;;;6.97;;
1955;SDS011;978;48.314;11.562;2023-07-13T00:58:47;16.87;;;7.30;;
1955;SDS011;978;48.314;11.562;2023-07-13T01:01:14;16.60;;;6.50;;
1955;SDS011;978;48.314;11.562;2023-07-13T01:03:41;15.93;;;5.67;;
1955;SDS011;978;48.314;11.562;2023-07-13T01:06:09;16.57;;;5.93;;
1955;SDS011;978;48.314;11.562;2023-07-13T01:08:37;16.17;;;6.07;;
1955;SDS011;978;48.314;11.562;2023-07-13T01:11:05;16.60;;;6.60;;
1955;SDS011;978;48.314;11.562;2023-07-13T01:13:35;16.30;;;6.10;;
1955;SDS011;978;48.314;11.562;2023-07-13T01:16:03;16.00;;;6.60;;
1955;SDS011;978;48.314;11.562;2023-07-13T01:18:40;15.53;;;5.07;;
1955;SDS011;978;48.314;11.562;2023-07-13T01:21:09;16.17;;;5.90;;
1955;SDS011;978;48.314;11.562;2023-07-13T01:23:36;16.50;;;6.03;;
1955;SDS011;978;48.314;11.562;2023-07-13T01:26:03;16.37;;;6.53;;
1955;SDS011;978;48.314;11.562;2023-07-13T01:28:29;16.40;;;5.43;;
1955;SDS011;978;48.314;11.562;2023-07-13T01:30:57;16.30;;;6.87;;
1955;SDS011;978;48.314;11.562;2023-07-13T01:33:25;16.57;;;6.03;;
1955;SDS011;978;48.314;11.562;2023-07-13T01:35:52;15.50;;;6.20;;
1955;SDS011;978;48.314;11.562;2023-07-13T01:38:21;16.80;;;5.47;;
1955;SDS011;978;48.314;11.562;2023-07-13T01:40:49;15.80;;;6.07;;
1955;SDS011;978;48.314;11.562;2023-07-13T01:43:16;15.43;;;4.80;;
1955;SDS011;978;48.314;11.562;2023-07-13T01:45:43;16.43;;;6.13;;
1955;SDS011;978;48.314;11.562;2023-07-13T01:48:10;15.77;;;5.80;;
1955;SDS011;978;48.314;11.562;2023-07-13T01:50:39;16.90;;;5.40;;
1955;SDS011;978;48.314;11.562;2023-07-13T01:53:06;15.37;;;5.70;;
1955;SDS011;978;48.314;11.562;2023-07-13T01:55:35;15.73;;;5.60;;
1955;SDS011;978;48.314;11.562;2023-07-13T01:58:02;15.03;;;4.97;;
1955;SDS011;978;48.314;11.562;2023-07-13T02:00:30;15.53;;;4.87;;
1955;SDS011;978;48.314;11.562;2023-07-13T02:02:57;15.73;;;4.90;;
1955;SDS011;978;48.314;11.562;2023-07-13T02:05:24;15.53;;;5.40;;
1955;SDS011;978;48.314;11.562;2023-07-13T02:07:51;15.40;;;5.80;;
1955;SDS011;978;48.314;11.562;2023-07-13T02:10:18;15.37;;;5.27;;
1955;SDS011;978;48.314;11.562;2023-07-13T02:12:47;16.27;;;6.67;;
1955;SDS011;978;48.314;11.562;2023-07-13T02:15:14;15.70;;;5.33;;
1955;SDS011;978;48.314;11.562;2023-07-13T02:17:41;15.37;;;5.93;;
1955;SDS011;978;48.314;11.562;2023-07-13T02:20:09;15.60;;;5.50;;
1955;SDS011;978;48.314;11.562;2023-07-13T02:22:36;16.90;;;5.67;;
1955;SDS011;978;48.314;11.562;2023-07-13T02:25:03;16.60;;;6.27;;
1955;SDS011;978;48.314;11.562;2023-07-13T02:27:30;15.87;;;5.77;;
1955;SDS011;978;48.314;11.562;2023-07-13T02:29:59;16.90;;;6.33;;
1955;SDS011;978;48.314;11.562;2023-07-13T02:32:25;15.40;;;5.30;;
1955;SDS011;978;48.314;11.562;2023-07-13T02:34:52;16.10;;;5.83;;
1955;SDS011;978;48.314;11.562;2023-07-13T02:37:19;15.40;;;5.17;;
1955;SDS011;978;48.314;11.562;2023-07-13T02:39:46;15.80;;;5.57;;
1955;SDS011;978;48.314;11.562;2023-07-13T02:42:13;15.30;;;5.50;;
1955;SDS011;978;48.314;11.562;2023-07-13T02:44:40;16.07;;;5.63;;
1955;SDS011;978;48.314;11.562;2023-07-13T02:47:09;16.00;;;4.70;;
1955;SDS011;978;48.314;11.562;2023-07-13T02:49:39;15.50;;;4.90;;
1955;SDS011;978;48.314;11.562;2023-07-13T02:52:05;15.50;;;5.73;;
1955;SDS011;978;48.314;11.562;2023-07-13T02:54:32;16.13;;;6.27;;
1955;SDS011;978;48.314;11.562;2023-07-13T02:56:59;16.43;;;5.07;;
1955;SDS011;978;48.314;11.562;2023-07-13T02:59:26;15.43;;;4.53;;
1955;SDS011;978;48.314;11.562;2023-07-13T03:01:53;16.23;;;6.43;;
1955;SDS011;978;48.314;11.562;2023-07-13T03:04:21;14.80;;;4.63;;
1955;SDS011;978;48.314;11.562;2023-07-13T03:06:47;14.80;;;5.13;;
1955;SDS011;978;48.314;11.562;2023-07-13T03:09:16;14.97;;;5.30;;
1955;SDS011;978;48.314;11.562;2023-07-13T03:11:43;16.30;;;6.60;;
1955;SDS011;978;48.314;11.562;2023-07-13T03:14:10;15.40;;;4.90;;
1955;SDS011;978;48.314;11.562;2023-07-13T03:16:36;16.00;;;5.90;;
1955;SDS011;978;48.314;11.562;2023-07-13T03:19:03;14.60;;;4.83;;
1955;SDS011;978;48.314;11.562;2023-07-13T03:21:31;16.10;;;4.90;;
1955;SDS011;978;48.314;11.562;2023-07-13T03:23:58;15.47;;;5.13;;
1955;SDS011;978;48.314;11.562;2023-07-13T03:26:25;15.90;;;5.47;;
1955;SDS011;978;48.314;11.562;2023-07-13T03:28:52;15.93;;;5.10;;
1955;SDS011;978;48.314;11.562;2023-07-13T03:31:20;15.50;;;5.30;;
1955;SDS011;978;48.314;11.562;2023-07-13T03:33:48;14.90;;;4.60;;
1955;SDS011;978;48.314;11.562;2023-07-13T03:36:16;17.40;;;6.10;;
1955;SDS011;978;48.314;11.562;2023-07-13T03:38:46;15.63;;;5.70;;
1955;SDS011;978;48.314;11.562;2023-07-13T03:41:15;15.30;;;4.70;;
1955;SDS011;978;48.314;11.562;2023-07-13T03:43:43;15.37;;;5.77;;
1955;SDS011;978;48.314;11.562;2023-07-13T03:46:10;15.67;;;5.00;;
1955;SDS011;978;48.314;11.562;2023-07-13T03:48:39;16.37;;;5.00;;
1955;SDS011;978;48.314;11.562;2023-07-13T03:51:09;15.83;;;6.00;;
1955;SDS011;978;48.314;11.562;2023-07-13T03:53:40;15.77;;;5.60;;
1955;SDS011;978;48.314;11.562;2023-07-13T03:56:10;15.33;;;5.10;;
1955;SDS011;978;48.314;11.562;2023-07-13T03:58:39;15.93;;;5.67;;
1955;SDS011;978;48.314;11.562;2023-07-13T04:01:09;16.10;;;6.07;;
1955;SDS011;978;48.314;11.562;2023-07-13T04:03:40;15.07;;;4.93;;
1955;SDS011;978;48.314;11.562;2023-07-13T04:06:11;15.70;;;5.00;;
1955;SDS011;978;48.314;11.562;2023-07-13T04:08:46;15.27;;;5.83;;
1955;SDS011;978;48.314;11.562;2023-07-13T04:11:16;15.77;;;5.13;;
1955;SDS011;978;48.314;11.562;2023-07-13T04:13:43;14.80;;;4.73;;
1955;SDS011;978;48.314;11.562;2023-07-13T04:16:10;15.87;;;5.77;;
1955;SDS011;978;48.314;11.562;2023-07-13T04:18:39;15.70;;;5.53;;
1955;SDS011;978;48.314;11.562;2023-07-13T04:21:06;16.47;;;5.90;;
1955;SDS011;978;48.314;11.562;2023-07-13T04:23:34;15.60;;;5.23;;
1955;SDS011;978;48.314;11.562;2023-07-13T04:26:00;15.90;;;5.20;;
1955;SDS011;978;48.314;11.562;2023-07-13T04:28:28;15.07;;;5.13;;
1955;SDS011;978;48.314;11.562;2023-07-13T04:30:56;15.47;;;5.87;;
1955;SDS011;978;48.314;11.562;2023-07-13T04:33:22;15.70;;;4.67;;
1955;SDS011;978;48.314;11.562;2023-07-13T04:35:49;15.77;;;4.77;;
1955;SDS011;978;48.314;11.562;2023-07-13T04:38:21;16.30;;;5.13;;
1955;SDS011;978;48.314;11.562;2023-07-13T04:40:49;15.37;;;5.83;;
1955;SDS011;978;48.314;11.562;2023-07-13T04:43:18;15.00;;;4.73;;
1955;SDS011;978;48.314;11.562;2023-07-13T04:45:46;15.90;;;4.63;;
1955;SDS011;978;48.314;11.562;2023-07-13T04:48:14;15.60;;;5.20;;
1955;SDS011;978;48.314;11.562;2023-07-13T04:50:41;15.53;;;5.80;;
1955;SDS011;978;48.314;11.562;2023-07-13T04:53:09;15.70;;;5.90;;
1955;SDS011;978;48.314;11.562;2023-07-13T04:55:36;15.70;;;6.37;;
1955;SDS011;978;48.314;11.562;2023-07-13T04:58:05;15.90;;;5.20;;
1955;SDS011;978;48.314;11.562;2023-07-13T05:00:35;16.10;;;5.13;;
1955;SDS011;978;48.314;11.562;2023-07-13T05:03:03;15.60;;;4.90;;
1955;SDS011;978;48.314;11.562;2023-07-13T05:05:30;16.37;;;7.17;;
1955;SDS011;978;48.314;11.562;2023-07-13T05:07:57;15.90;;;6.03;;
1955;SDS011;978;48.314;11.562;2023-07-13T05:10:24;15.50;;;4.97;;
1955;SDS011;978;48.314;11.562;2023-07-13T05:12:51;16.33;;;5.60;;
1955;SDS011;978;48.314;11.562;2023-07-13T05:15:20;16.33;;;5.50;;
1955;SDS011;978;48.314;11.562;2023-07-13T05:17:49;15.77;;;5.87;;
1955;SDS011;978;48.314;11.562;2023-07-13T05:20:17;15.97;;;5.40;;
1955;SDS011;978;48.314;11.562;2023-07-13T05:22:45;15.80;;;4.90;;
1955;SDS011;978;48.314;11.562;2023-07-13T05:25:14;15.93;;;5.00;;
1955;SDS011;978;48.314;11.562;2023-07-13T05:27:41;15.00;;;5.13;;
1955;SDS011;978;48.314;11.562;2023-07-13T05:30:07;15.83;;;6.40;;
1955;SDS011;978;48.314;11.562;2023-07-13T05:32:37;15.43;;;5.03;;
1955;SDS011;978;48.314;11.562;2023-07-13T05:35:04;15.90;;;5.63;;
1955;SDS011;978;48.314;11.562;2023-07-13T05:37:35;16.00;;;6.90;;
1955;SDS011;978;48.314;11.562;2023-07-13T05:40:03;15.27;;;5.37;;
1955;SDS011;978;48.314;11.562;2023-07-13T05:42:31;15.80;;;5.23;;
1955;SDS011;978;48.314;11.562;2023-07-13T05:44:58;16.57;;;5.40;;
1955;SDS011;978;48.314;11.562;2023-07-13T05:47:24;15.93;;;5.87;;
1955;SDS011;978;48.314;11.562;2023-07-13T05:49:53;15.80;;;5.67;;
1955;SDS011;978;48.314;11.562;2023-07-13T05:52:20;16.10;;;4.90;;
1955;SDS011;978;48.314;11.562;2023-07-13T05:54:49;15.80;;;6.53;;
1955;SDS011;978;48.314;11.562;2023-07-13T05:57:16;15.70;;;5.07;;
1955;SDS011;978;48.314;11.562;2023-07-13T05:59:44;15.30;;;6.13;;
1955;SDS011;978;48.314;11.562;2023-07-13T06:02:11;15.30;;;5.23;;
1955;SDS011;978;48.314;11.562;2023-07-13T06:04:38;15.43;;;6.33;;
1955;SDS011;978;48.314;11.562;2023-07-13T06:07:05;16.60;;;6.70;;
1955;SDS011;978;48.314;11.562;2023-07-13T06:09:34;15.90;;;5.70;;
1955;SDS011;978;48.314;11.562;2023-07-13T06:12:02;15.77;;;5.13;;
1955;SDS011;978;48.314;11.562;2023-07-13T06:14:30;16.03;;;6.13;;
1955;SDS011;978;48.314;11.562;2023-07-13T06:16:59;16.00;;;5.43;;
1955;SDS011;978;48.314;11.562;2023-07-13T06:19:28;15.80;;;5.20;;
1955;SDS011;978;48.314;11.562;2023-07-13T06:21:55;19.10;;;7.60;;
1955;SDS011;978;48.314;11.562;2023-07-13T06:24:23;15.10;;;4.87;;
1955;SDS011;978;48.314;11.562;2023-07-13T06:26:54;16.33;;;6.00;;
1955;SDS011;978;48.314;11.562;2023-07-13T06:29:23;15.00;;;4.87;;
1955;SDS011;978;48.314;11.562;2023-07-13T06:31:50;15.77;;;5.87;;
1955;SDS011;978;48.314;11.562;2023-07-13T06:34:18;15.50;;;5.13;;
1955;SDS011;978;48.314;11.562;2023-07-13T06:36:45;15.87;;;5.50;;
1955;SDS011;978;48.314;11.562;2023-07-13T06:39:11;15.80;;;5.50;;
1955;SDS011;978;48.314;11.562;2023-07-13T06:41:40;15.63;;;4.90;;
1955;SDS011;978;48.314;11.562;2023-07-13T06:44:08;15.40;;;4.90;;
1955;SDS011;978;48.314;11.562;2023-07-13T06:46:36;15.57;;;5.10;;
1955;SDS011;978;48.314;11.562;2023-07-13T06:49:03;15.83;;;5.33;;
1955;SDS011;978;48.314;11.562;2023-07-13T06:51:29;15.33;;;5.13;;
1955;SDS011;978;48.314;11.562;2023-07-13T06:53:56;15.07;;;5.60;;
1955;SDS011;978;48.314;11.562;2023-07-13T06:56:23;15.13;;;4.90;;
1955;SDS011;978;48.314;11.562;2023-07-13T06:58:50;14.80;;;4.30;;
1955;SDS011;978;48.314;11.562;2023-07-13T07:01:17;15.20;;;5.07;;
1955;SDS011;978;48.314;11.562;2023-07-13T07:03:45;15.27;;;5.23;;
1955;SDS011;978;48.314;11.562;2023-07-13T07:06:16;15.13;;;5.00;;
1955;SDS011;978;48.314;11.562;2023-07-13T07:08:44;15.83;;;5.40;;
1955;SDS011;978;48.314;11.562;2023-07-13T07:11:12;15.50;;;5.70;;
1955;SDS011;978;48.314;11.562;2023-07-13T07:13:40;15.20;;;5.10;;
1955;SDS011;978;48.314;11.562;2023-07-13T07:16:09;14.73;;;4.43;;
1955;SDS011;978;48.314;11.562;2023-07-13T07:18:36;14.63;;;5.50;;
1955;SDS011;978;48.314;11.562;2023-07-13T07:21:04;15.37;;;4.40;;
1955;SDS011;978;48.314;11.562;2023-07-13T07:23:31;14.90;;;4.57;;
1955;SDS011;978;48.314;11.562;2023-07-13T07:25:58;15.67;;;4.73;;
1955;SDS011;978;48.314;11.562;2023-07-13T07:28:25;14.70;;;4.80;;
1955;SDS011;978;48.314;11.562;2023-07-13T07:30:55;14.70;;;4.90;;
1955;SDS011;978;48.314;11.562;2023-07-13T07:33:23;14.70;;;4.70;;
1955;SDS011;978;48.314;11.562;2023-07-13T07:35:50;14.90;;;4.10;;
1955;SDS011;978;48.314;11.562;2023-07-13T07:38:23;15.23;;;4.30;;
1955;SDS011;978;48.314;11.562;2023-07-13T07:40:49;14.80;;;5.13;;
1955;SDS011;978;48.314;11.562;2023-07-13T07:43:18;14.60;;;4.50;;
1955;SDS011;978;48.314;11.562;2023-07-13T07:45:44;14.87;;;4.80;;
1955;SDS011;978;48.314;11.562;2023-07-13T07:48:13;14.30;;;3.90;;
1955;SDS011;978;48.314;11.562;2023-07-13T07:50:39;14.53;;;4.10;;
1955;SDS011;978;48.314;11.562;2023-07-13T07:53:07;14.97;;;3.77;;
1955;SDS011;978;48.314;11.562;2023-07-13T07:55:36;15.27;;;3.83;;
1955;SDS011;978;48.314;11.562;2023-07-13T07:58:05;14.80;;;4.13;;
1955;SDS011;978;48.314;11.562;2023-07-13T08:00:34;14.37;;;4.10;;
1955;SDS011;978;48.314;11.562;2023-07-13T08:03:01;14.67;;;4.70;;
1955;SDS011;978;48.314;11.562;2023-07-13T08:05:29;14.23;;;4.37;;
1955;SDS011;978;48.314;11.562;2023-07-13T08:07:56;14.33;;;3.83;;
1955;SDS011;978;48.314;11.562;2023-07-13T08:10:26;21.90;;;4.63;;
1955;SDS011;978;48.314;11.562;2023-07-13T08:12:54;14.90;;;3.30;;
1955;SDS011;978;48.314;11.562;2023-07-13T08:15:22;14.10;;;3.57;;
1955;SDS011;978;48.314;11.562;2023-07-13T08:17:50;14.20;;;4.00;;
1955;SDS011;978;48.314;11.562;2023-07-13T08:20:18;13.60;;;3.60;;
1955;SDS011;978;48.314;11.562;2023-07-13T08:22:46;13.90;;;4.00;;
1955;SDS011;978;48.314;11.562;2023-07-13T08:25:13;13.80;;;3.73;;
1955;SDS011;978;48.314;11.562;2023-07-13T08:27:40;13.70;;;3.07;;
1955;SDS011;978;48.314;11.562;2023-07-13T08:30:10;13.50;;;3.23;;
1955;SDS011;978;48.314;11.562;2023-07-13T08:32:36;19.47;;;3.77;;
1955;SDS011;978;48.314;11.562;2023-07-13T08:35:05;14.70;;;4.70;;
1955;SDS011;978;48.314;11.562;2023-07-13T08:37:32;13.90;;;3.30;;
1955;SDS011;978;48.314;11.562;2023-07-13T08:40:00;14.17;;;3.97;;
1955;SDS011;978;48.314;11.562;2023-07-13T08:42:33;13.67;;;3.10;;
1955;SDS011;978;48.314;11.562;2023-07-13T08:45:08;13.13;;;3.07;;
1955;SDS011;978;48.314;11.562;2023-07-13T08:47:46;14.13;;;3.17;;
1955;SDS011;978;48.314;11.562;2023-07-13T08:50:19;13.50;;;3.60;;
1955;SDS011;978;48.314;11.562;2023-07-13T08:52:54;13.20;;;3.23;;
1955;SDS011;978;48.314;11.562;2023-07-13T08:55:26;12.40;;;2.13;;
1955;SDS011;978;48.314;11.562;2023-07-13T08:58:00;12.50;;;2.17;;
1955;SDS011;978;48.314;11.562;2023-07-13T09:00:36;12.50;;;2.50;;
1955;SDS011;978;48.314;11.562;2023-07-13T09:03:12;12.80;;;2.60;;
1955;SDS011;978;48.314;11.562;2023-07-13T09:05:47;13.50;;;2.83;;
1955;SDS011;978;48.314;11.562;2023-07-13T09:08:23;13.57;;;3.40;;
1955;SDS011;978;48.314;11.562;2023-07-13T09:10:59;13.13;;;3.73;;
1955;SDS011;978;48.314;11.562;2023-07-13T09:13:40;13.40;;;3.07;;
1955;SDS011;978;48.314;11.562;2023-07-13T09:16:18;13.33;;;3.30;;
1955;SDS011;978;48.314;11.562;2023-07-13T09:18:47;12.67;;;3.00;;
1955;SDS011;978;48.314;11.562;2023-07-13T09:21:17;13.30;;;3.23;;
1955;SDS011;978;48.314;11.562;2023-07-13T09:23:49;13.60;;;2.90;;
1955;SDS011;978;48.314;11.562;2023-07-13T09:26:21;13.30;;;3.63;;
1955;SDS011;978;48.314;11.562;2023-07-13T09:28:51;13.50;;;3.20;;
1955;SDS011;978;48.314;11.562;2023-07-13T09:31:23;13.47;;;2.83;;
1955;SDS011;978;48.314;11.562;2023-07-13T09:33:57;13.77;;;4.10;;
1955;SDS011;978;48.314;11.562;2023-07-13T09:36:28;13.00;;;2.57;;
1955;SDS011;978;48.314;11.562;2023-07-13T09:38:58;12.93;;;2.67;;
1955;SDS011;978;48.314;11.562;2023-07-13T09:41:33;13.00;;;3.57;;
1955;SDS011;978;48.314;11.562;2023-07-13T09:44:14;13.27;;;2.80;;
1955;SDS011;978;48.314;11.562;2023-07-13T09:46:45;13.00;;;2.30;;
1955;SDS011;978;48.314;11.562;2023-07-13T09:49:14;12.87;;;2.90;;
1955;SDS011;978;48.314;11.562;2023-07-13T09:51:41;13.07;;;3.77;;
1955;SDS011;978;48.314;11.562;2023-07-13T09:54:17;14.23;;;3.60;;
1955;SDS011;978;48.314;11.562;2023-07-13T09:56:46;12.80;;;2.90;;
1955;SDS011;978;48.314;11.562;2023-07-13T09:59:19;12.13;;;2.10;;
1955;SDS011;978;48.314;11.562;2023-07-13T10:01:48;12.80;;;2.50;;
1955;SDS011;978;48.314;11.562;2023-07-13T10:04:16;12.50;;;2.30;;
1955;SDS011;978;48.314;11.562;2023-07-13T10:06:44;12.30;;;2.00;;
1955;SDS011;978;48.314;11.562;2023-07-13T10:09:15;12.53;;;2.40;;
1955;SDS011;978;48.314;11.562;2023-07-13T10:11:44;12.60;;;1.93;;
1955;SDS011;978;48.314;11.562;2023-07-13T10:14:12;12.60;;;2.53;;
1955;SDS011;978;48.314;11.562;2023-07-13T10:16:41;12.50;;;2.27;;
1955;SDS011;978;48.314;11.562;2023-07-13T10:19:15;12.43;;;2.47;;
1955;SDS011;978;48.314;11.562;2023-07-13T10:21:59;12.60;;;2.70;;
1955;SDS011;978;48.314;11.562;2023-07-13T10:24:29;12.53;;;2.27;;
1955;SDS011;978;48.314;11.562;2023-07-13T10:26:58;12.60;;;2.00;;
1955;SDS011;978;48.314;11.562;2023-07-13T10:29:30;12.50;;;1.97;;
1955;SDS011;978;48.314;11.562;2023-07-13T10:32:03;11.83;;;1.97;;
1955;SDS011;978;48.314;11.562;2023-07-13T10:34:36;12.40;;;2.23;;
1955;SDS011;978;48.314;11.562;2023-07-13T10:37:09;12.53;;;2.10;;
1955;SDS011;978;48.314;11.562;2023-07-13T10:39:44;12.23;;;2.00;;
1955;SDS011;978;48.314;11.562;2023-07-13T10:42:14;12.00;;;1.70;;
1955;SDS011;978;48.314;11.562;2023-07-13T10:44:48;12.00;;;2.10;;
1955;SDS011;978;48.314;11.562;2023-07-13T10:47:15;12.03;;;1.83;;
1955;SDS011;978;48.314;11.562;2023-07-13T10:49:44;12.50;;;1.80;;
1955;SDS011;978;48.314;11.562;2023-07-13T10:57:59;12.17;;;1.80;;
1955;SDS011;978;48.314;11.562;2023-07-13T11:00:30;11.87;;;2.00;;
1955;SDS011;978;48.314;11.562;2023-07-13T11:02:59;11.97;;;1.50;;
1955;SDS011;978;48.314;11.562;2023-07-13T11:05:31;12.50;;;1.63;;
1955;SDS011;978;48.314;11.562;2023-07-13T11:08:03;13.40;;;2.03;;
1955;SDS011;978;48.314;11.562;2023-07-13T11:10:50;12.53;;;2.07;;
1955;SDS011;978;48.314;11.562;2023-07-13T11:13:39;12.10;;;1.63;;
1955;SDS011;978;48.314;11.562;2023-07-13T11:16:34;12.50;;;1.50;;
1955;SDS011;978;48.314;11.562;2023-07-13T11:22:21;11.90;;;1.50;;
1955;SDS011;978;48.314;11.562;2023-07-13T11:24:52;12.40;;;1.67;;
1955;SDS011;978;48.314;11.562;2023-07-13T11:27:35;12.20;;;1.70;;
1955;SDS011;978;48.314;11.562;2023-07-13T11:30:21;11.83;;;1.60;;
1955;SDS011;978;48.314;11.562;2023-07-13T11:32:50;12.00;;;1.40;;
1955;SDS011;978;48.314;11.562;2023-07-13T11:35:30;12.17;;;2.33;;
1955;SDS011;978;48.314;11.562;2023-07-13T11:38:01;12.00;;;1.50;;
1955;SDS011;978;48.314;11.562;2023-07-13T11:40:30;12.27;;;1.70;;
1955;SDS011;978;48.314;11.562;2023-07-13T11:42:59;12.30;;;1.57;;
1955;SDS011;978;48.314;11.562;2023-07-13T11:45:27;11.90;;;1.40;;
1955;SDS011;978;48.314;11.562;2023-07-13T11:47:54;11.90;;;1.60;;
1955;SDS011;978;48.314;11.562;2023-07-13T11:50:22;12.00;;;1.50;;
1955;SDS011;978;48.314;11.562;2023-07-13T11:52:51;14.23;;;2.30;;
1955;SDS011;978;48.314;11.562;2023-07-13T11:55:22;11.73;;;1.63;;
1955;SDS011;978;48.314;11.562;2023-07-13T11:57:51;12.30;;;2.00;;
1955;SDS011;978;48.314;11.562;2023-07-13T12:00:23;11.60;;;1.33;;
1955;SDS011;978;48.314;11.562;2023-07-13T12:02:56;11.77;;;1.40;;
1955;SDS011;978;48.314;11.562;2023-07-13T12:05:25;11.40;;;1.23;;
1955;SDS011;978;48.314;11.562;2023-07-13T12:07:52;11.67;;;1.70;;
1955;SDS011;978;48.314;11.562;2023-07-13T12:10:22;11.43;;;1.20;;
1955;SDS011;978;48.314;11.562;2023-07-13T12:12:52;11.43;;;1.30;;
1955;SDS011;978;48.314;11.562;2023-07-13T12:15:20;11.30;;;1.40;;
1955;SDS011;978;48.314;11.562;2023-07-13T12:17:48;11.53;;;1.23;;
1955;SDS011;978;48.314;11.562;2023-07-13T12:20:19;11.57;;;1.50;;
1955;SDS011;978;48.314;11.562;2023-07-13T12:22:48;11.07;;;1.10;;
1955;SDS011;978;48.314;11.562;2023-07-13T12:25:15;10.93;;;1.03;;
1955;SDS011;978;48.314;11.562;2023-07-13T12:27:47;11.03;;;1.17;;
1955;SDS011;978;48.314;11.562;2023-07-13T12:30:26;10.70;;;1.30;;
1955;SDS011;978;48.314;11.562;2023-07-13T12:32:56;11.33;;;1.27;;
1955;SDS011;978;48.314;11.562;2023-07-13T12:35:25;10.63;;;1.10;;
1955;SDS011;978;48.314;11.562;2023-07-13T12:37:56;11.80;;;1.60;;
1955;SDS011;978;48.314;11.562;2023-07-13T12:40:26;12.77;;;1.87;;
1955;SDS011;978;48.314;11.562;2023-07-13T12:42:59;11.00;;;1.70;;
1955;SDS011;978;48.314;11.562;2023-07-13T12:45:30;11.73;;;1.57;;
1955;SDS011;978;48.314;11.562;2023-07-13T12:47:59;10.70;;;1.37;;
1955;SDS011;978;48.314;11.562;2023-07-13T12:50:36;11.00;;;1.23;;
1955;SDS011;978;48.314;11.562;2023-07-13T12:53:12;11.27;;;1.77;;
1955;SDS011;978;48.314;11.562;2023-07-13T12:55:41;11.10;;;1.00;;
1955;SDS011;978;48.314;11.562;2023-07-13T12:58:13;10.60;;;1.10;;
1955;SDS011;978;48.314;11.562;2023-07-13T13:00:48;10.70;;;1.00;;
1955;SDS011;978;48.314;11.562;2023-07-13T13:03:20;13.07;;;1.87;;
1955;SDS011;978;48.314;11.562;2023-07-13T13:05:56;10.40;;;1.10;;
1955;SDS011;978;48.314;11.562;2023-07-13T13:08:24;10.50;;;1.10;;
1955;SDS011;978;48.314;11.562;2023-07-13T13:10:51;10.63;;;1.87;;
1955;SDS011;978;48.314;11.562;2023-07-13T13:13:20;10.57;;;1.80;;
1955;SDS011;978;48.314;11.562;2023-07-13T13:15:47;10.60;;;1.00;;
1955;SDS011;978;48.314;11.562;2023-07-13T13:18:15;10.53;;;1.50;;
1955;SDS011;978;48.314;11.562;2023-07-13T13:20:43;10.20;;;1.10;;
1955;SDS011;978;48.314;11.562;2023-07-13T13:23:15;10.40;;;1.17;;
1955;SDS011;978;48.314;11.562;2023-07-13T13:25:44;10.27;;;1.10;;
1955;SDS011;978;48.314;11.562;2023-07-13T13:28:14;10.47;;;1.73;;
1955;SDS011;978;48.314;11.562;2023-07-13T13:30:44;10.20;;;1.10;;
1955;SDS011;978;48.314;11.562;2023-07-13T13:33:14;10.10;;;1.20;;
1955;SDS011;978;48.314;11.562;2023-07-13T13:35:44;10.40;;;1.30;;
1955;SDS011;978;48.314;11.562;2023-07-13T13:38:13;10.20;;;1.10;;
1955;SDS011;978;48.314;11.562;2023-07-13T13:40:42;11.00;;;1.40;;
1955;SDS011;978;48.314;11.562;2023-07-13T13:43:16;10.67;;;1.23;;
1955;SDS011;978;48.314;11.562;2023-07-13T13:45:45;10.67;;;1.20;;
1955;SDS011;978;48.314;11.562;2023-07-13T13:48:20;10.50;;;1.47;;
1955;SDS011;978;48.314;11.562;2023-07-13T13:50:55;10.67;;;1.10;;
1955;SDS011;978;48.314;11.562;2023-07-13T13:53:23;12.20;;;1.73;;
1955;SDS011;978;48.314;11.562;2023-07-13T13:55:50;10.57;;;1.10;;
1955;SDS011;978;48.314;11.562;2023-07-13T13:58:18;11.20;;;1.30;;
1955;SDS011;978;48.314;11.562;2023-07-13T14:00:47;11.23;;;1.00;;
1955;SDS011;978;48.314;11.562;2023-07-13T14:03:16;11.30;;;1.30;;
1955;SDS011;978;48.314;11.562;2023-07-13T14:05:45;11.00;;;1.40;;
1955;SDS011;978;48.314;11.562;2023-07-13T14:08:14;10.83;;;1.00;;
1955;SDS011;978;48.314;11.562;2023-07-13T14:10:43;10.67;;;1.47;;
1955;SDS011;978;48.314;11.562;2023-07-13T14:13:15;11.20;;;1.27;;
1955;SDS011;978;48.314;11.562;2023-07-13T14:15:43;10.63;;;1.10;;
1955;SDS011;978;48.314;11.562;2023-07-13T14:18:15;10.93;;;1.30;;
1955;SDS011;978;48.314;11.562;2023-07-13T14:20:44;15.90;;;1.57;;
1955;SDS011;978;48.314;11.562;2023-07-13T14:23:12;11.10;;;1.40;;
1955;SDS011;978;48.314;11.562;2023-07-13T14:25:39;10.73;;;1.37;;
1955;SDS011;978;48.314;11.562;2023-07-13T14:28:14;10.50;;;1.57;;
1955;SDS011;978;48.314;11.562;2023-07-13T14:30:50;10.67;;;1.20;;
1955;SDS011;978;48.314;11.562;2023-07-13T14:33:22;11.60;;;1.50;;
1955;SDS011;978;48.314;11.562;2023-07-13T14:35:50;11.23;;;1.80;;
1955;SDS011;978;48.314;11.562;2023-07-13T14:38:19;10.40;;;1.17;;
1955;SDS011;978;48.314;11.562;2023-07-13T14:40:46;10.67;;;1.70;;
1955;SDS011;978;48.314;11.562;2023-07-13T14:43:15;10.40;;;1.10;;
1955;SDS011;978;48.314;11.562;2023-07-13T14:45:43;10.60;;;1.30;;
1955;SDS011;978;48.314;11.562;2023-07-13T14:48:16;10.70;;;1.27;;
1955;SDS011;978;48.314;11.562;2023-07-13T14:50:46;11.20;;;1.30;;
1955;SDS011;978;48.314;11.562;2023-07-13T14:53:14;10.83;;;1.20;;
1955;SDS011;978;48.314;11.562;2023-07-13T14:55:41;10.30;;;1.20;;
1955;SDS011;978;48.314;11.562;2023-07-13T14:58:09;10.57;;;1.53;;
1955;SDS011;978;48.314;11.562;2023-07-13T15:00:36;11.47;;;1.50;;
1955;SDS011;978;48.314;11.562;2023-07-13T15:03:05;10.63;;;1.20;;
1955;SDS011;978;48.314;11.562;2023-07-13T15:05:45;10.80;;;1.60;;
1955;SDS011;978;48.314;11.562;2023-07-13T15:08:13;10.50;;;1.10;;
1955;SDS011;978;48.314;11.562;2023-07-13T15:10:42;10.70;;;1.30;;
1955;SDS011;978;48.314;11.562;2023-07-13T15:13:15;10.63;;;1.20;;
1955;SDS011;978;48.314;11.562;2023-07-13T15:15:46;10.30;;;1.10;;
1955;SDS011;978;48.314;11.562;2023-07-13T15:18:14;10.67;;;1.10;;
1955;SDS011;978;48.314;11.562;2023-07-13T15:20:43;11.03;;;1.67;;
1955;SDS011;978;48.314;11.562;2023-07-13T15:23:15;10.50;;;1.07;;
1955;SDS011;978;48.314;11.562;2023-07-13T15:25:43;10.60;;;1.40;;